sensor_id;sensor_type;location;lat;lon;timestamp;P1;durP1;ratioP1;P2;durP2;ratioP2
43994;SDS011;51687;52.160;5.298;2023-03-23T00:02:14;7.30;;;5.45;;
43994;SDS011;51687;52.160;5.298;2023-03-23T00:04:41;6.60;;;4.78;;
43994;SDS011;51687;52.160;5.298;2023-03-23T00:07:07;7.60;;;4.70;;
43994;SDS011;51687;52.160;5.298;2023-03-23T00:09:33;6.55;;;4.70;;
43994;SDS011;51687;52.160;5.298;2023-03-23T00:11:59;6.47;;;4.75;;
43994;SDS011;51687;52.160;5.298;2023-03-23T00:14:31;7.30;;;4.88;;
43994;SDS011;51687;52.160;5.298;2023-03-23T00:17:07;7.35;;;4.78;;
43994;SDS011;51687;52.160;5.298;2023-03-23T00:19:35;6.07;;;4.20;;
43994;SDS011;51687;52.160;5.298;2023-03-23T00:22:11;6.40;;;4.90;;
43994;SDS011;51687;52.160;5.298;2023-03-23T00:24:39;4.30;;;3.95;;
43994;SDS011;51687;52.160;5.298;2023-03-23T00:27:05;5.75;;;4.15;;
43994;SDS011;51687;52.160;5.298;2023-03-23T00:29:30;7.75;;;4.68;;
43994;SDS011;51687;52.160;5.298;2023-03-23T00:32:00;12.48;;;4.40;;
43994;SDS011;51687;52.160;5.298;2023-03-23T00:34:27;4.80;;;3.95;;
43994;SDS011;51687;52.160;5.298;2023-03-23T00:36:57;7.30;;;4.00;;
43994;SDS011;51687;52.160;5.298;2023-03-23T00:39:24;6.70;;;4.40;;
43994;SDS011;51687;52.160;5.298;2023-03-23T00:41:52;4.85;;;4.05;;
43994;SDS011;51687;52.160;5.298;2023-03-23T00:44:25;5.47;;;3.72;;
43994;SDS011;51687;52.160;5.298;2023-03-23T00:46:53;7.72;;;4.22;;
43994;SDS011;51687;52.160;5.298;2023-03-23T00:49:22;6.22;;;4.43;;
43994;SDS011;51687;52.160;5.298;2023-03-23T00:51:52;4.95;;;4.13;;
43994;SDS011;51687;52.160;5.298;2023-03-23T00:54:20;6.43;;;3.97;;
43994;SDS011;51687;52.160;5.298;2023-03-23T00:56:46;3.83;;;3.50;;
43994;SDS011;51687;52.160;5.298;2023-03-23T00:59:12;6.30;;;4.03;;
43994;SDS011;51687;52.160;5.298;2023-03-23T01:01:38;5.40;;;4.40;;
43994;SDS011;51687;52.160;5.298;2023-03-23T01:04:04;6.35;;;3.50;;
43994;SDS011;51687;52.160;5.298;2023-03-23T01:06:30;7.22;;;4.05;;
43994;SDS011;51687;52.160;5.298;2023-03-23T01:09:00;6.70;;;4.10;;
43994;SDS011;51687;52.160;5.298;2023-03-23T01:11:28;4.28;;;3.45;;
43994;SDS011;51687;52.160;5.298;2023-03-23T01:13:54;5.15;;;3.10;;
43994;SDS011;51687;52.160;5.298;2023-03-23T01:16:20;5.07;;;3.92;;
43994;SDS011;51687;52.160;5.298;2023-03-23T01:18:46;6.90;;;2.92;;
43994;SDS011;51687;52.160;5.298;2023-03-23T01:21:13;6.72;;;3.72;;
43994;SDS011;51687;52.160;5.298;2023-03-23T01:23:41;5.57;;;3.25;;
43994;SDS011;51687;52.160;5.298;2023-03-23T01:26:08;3.80;;;3.00;;
43994;SDS011;51687;52.160;5.298;2023-03-23T01:28:36;7.05;;;3.03;;
43994;SDS011;51687;52.160;5.298;2023-03-23T01:31:02;3.83;;;2.70;;
43994;SDS011;51687;52.160;5.298;2023-03-23T01:33:30;4.10;;;3.00;;
43994;SDS011;51687;52.160;5.298;2023-03-23T01:35:56;4.07;;;3.33;;
43994;SDS011;51687;52.160;5.298;2023-03-23T01:38:22;4.32;;;3.22;;
43994;SDS011;51687;52.160;5.298;2023-03-23T01:40:48;3.97;;;3.28;;
43994;SDS011;51687;52.160;5.298;2023-03-23T01:43:14;4.07;;;3.25;;
43994;SDS011;51687;52.160;5.298;2023-03-23T01:45:41;3.55;;;2.97;;
43994;SDS011;51687;52.160;5.298;2023-03-23T01:48:09;3.08;;;2.75;;
43994;SDS011;51687;52.160;5.298;2023-03-23T01:51:02;3.58;;;2.63;;
43994;SDS011;51687;52.160;5.298;2023-03-23T01:53:42;4.00;;;3.08;;
43994;SDS011;51687;52.160;5.298;2023-03-23T01:56:11;3.88;;;2.50;;
43994;SDS011;51687;52.160;5.298;2023-03-23T02:01:07;2.78;;;2.55;;
43994;SDS011;51687;52.160;5.298;2023-03-23T02:03:38;4.57;;;3.45;;
43994;SDS011;51687;52.160;5.298;2023-03-23T02:06:07;5.68;;;3.35;;
43994;SDS011;51687;52.160;5.298;2023-03-23T02:08:33;4.15;;;2.97;;
43994;SDS011;51687;52.160;5.298;2023-03-23T02:10:59;5.40;;;3.65;;
43994;SDS011;51687;52.160;5.298;2023-03-23T02:13:25;3.42;;;2.85;;
43994;SDS011;51687;52.160;5.298;2023-03-23T02:24:15;3.10;;;2.80;;
43994;SDS011;51687;52.160;5.298;2023-03-23T02:27:07;6.50;;;3.47;;
43994;SDS011;51687;52.160;5.298;2023-03-23T02:36:09;5.63;;;3.35;;
43994;SDS011;51687;52.160;5.298;2023-03-23T02:42:02;5.28;;;3.50;;
43994;SDS011;51687;52.160;5.298;2023-03-23T02:44:31;3.70;;;3.33;;
43994;SDS011;51687;52.160;5.298;2023-03-23T02:47:00;3.55;;;2.97;;
43994;SDS011;51687;52.160;5.298;2023-03-23T02:49:29;4.18;;;3.33;;
43994;SDS011;51687;52.160;5.298;2023-03-23T02:52:02;4.05;;;3.10;;
43994;SDS011;51687;52.160;5.298;2023-03-23T02:54:34;5.38;;;3.05;;
43994;SDS011;51687;52.160;5.298;2023-03-23T02:57:01;3.95;;;3.40;;
43994;SDS011;51687;52.160;5.298;2023-03-23T02:59:27;3.55;;;2.85;;
43994;SDS011;51687;52.160;5.298;2023-03-23T03:02:35;4.20;;;3.45;;
43994;SDS011;51687;52.160;5.298;2023-03-23T03:04:48;4.18;;;2.95;;
43994;SDS011;51687;52.160;5.298;2023-03-23T03:07:30;4.75;;;2.83;;
43994;SDS011;51687;52.160;5.298;2023-03-23T03:10:46;5.75;;;2.90;;
43994;SDS011;51687;52.160;5.298;2023-03-23T03:12:57;4.63;;;2.63;;
43994;SDS011;51687;52.160;5.298;2023-03-23T03:15:36;3.50;;;2.47;;
43994;SDS011;51687;52.160;5.298;2023-03-23T03:18:18;5.40;;;2.78;;
43994;SDS011;51687;52.160;5.298;2023-03-23T03:20:49;4.35;;;2.50;;
43994;SDS011;51687;52.160;5.298;2023-03-23T03:23:20;4.10;;;2.22;;
43994;SDS011;51687;52.160;5.298;2023-03-23T03:25:48;6.65;;;2.42;;
43994;SDS011;51687;52.160;5.298;2023-03-23T03:28:19;4.53;;;1.90;;
43994;SDS011;51687;52.160;5.298;2023-03-23T03:30:47;4.90;;;2.65;;
43994;SDS011;51687;52.160;5.298;2023-03-23T03:33:19;4.65;;;2.40;;
43994;SDS011;51687;52.160;5.298;2023-03-23T03:35:50;6.78;;;2.22;;
43994;SDS011;51687;52.160;5.298;2023-03-23T03:38:18;4.72;;;2.00;;
43994;SDS011;51687;52.160;5.298;2023-03-23T03:40:45;4.30;;;1.80;;
43994;SDS011;51687;52.160;5.298;2023-03-23T03:43:11;6.20;;;2.10;;
43994;SDS011;51687;52.160;5.298;2023-03-23T03:45:37;6.70;;;1.70;;
43994;SDS011;51687;52.160;5.298;2023-03-23T03:48:02;3.70;;;1.80;;
43994;SDS011;51687;52.160;5.298;2023-03-23T03:50:28;5.60;;;2.05;;
43994;SDS011;51687;52.160;5.298;2023-03-23T03:52:54;5.53;;;2.10;;
43994;SDS011;51687;52.160;5.298;2023-03-23T03:55:20;8.88;;;2.15;;
43994;SDS011;51687;52.160;5.298;2023-03-23T03:57:46;6.00;;;1.70;;
43994;SDS011;51687;52.160;5.298;2023-03-23T04:00:12;5.20;;;1.90;;
43994;SDS011;51687;52.160;5.298;2023-03-23T04:02:43;4.25;;;1.80;;
43994;SDS011;51687;52.160;5.298;2023-03-23T04:05:15;3.30;;;1.83;;
43994;SDS011;51687;52.160;5.298;2023-03-23T04:07:41;5.60;;;1.60;;
43994;SDS011;51687;52.160;5.298;2023-03-23T04:10:07;5.78;;;1.60;;
43994;SDS011;51687;52.160;5.298;2023-03-23T04:12:35;4.43;;;1.73;;
43994;SDS011;51687;52.160;5.298;2023-03-23T04:15:01;4.45;;;1.83;;
43994;SDS011;51687;52.160;5.298;2023-03-23T04:17:28;5.20;;;1.45;;
43994;SDS011;51687;52.160;5.298;2023-03-23T04:19:54;6.18;;;1.80;;
43994;SDS011;51687;52.160;5.298;2023-03-23T04:22:24;4.93;;;1.83;;
43994;SDS011;51687;52.160;5.298;2023-03-23T04:24:55;4.10;;;1.70;;
43994;SDS011;51687;52.160;5.298;2023-03-23T04:27:25;8.57;;;2.30;;
43994;SDS011;51687;52.160;5.298;2023-03-23T04:29:54;11.10;;;2.50;;
43994;SDS011;51687;52.160;5.298;2023-03-23T04:32:21;7.82;;;1.63;;
43994;SDS011;51687;52.160;5.298;2023-03-23T04:34:47;6.85;;;1.85;;
43994;SDS011;51687;52.160;5.298;2023-03-23T04:37:13;5.97;;;1.77;;
43994;SDS011;51687;52.160;5.298;2023-03-23T04:39:39;5.85;;;1.80;;
43994;SDS011;51687;52.160;5.298;2023-03-23T04:42:06;5.32;;;2.13;;
43994;SDS011;51687;52.160;5.298;2023-03-23T04:44:32;5.65;;;1.88;;
43994;SDS011;51687;52.160;5.298;2023-03-23T04:47:00;5.07;;;1.83;;
43994;SDS011;51687;52.160;5.298;2023-03-23T04:49:26;6.40;;;1.30;;
43994;SDS011;51687;52.160;5.298;2023-03-23T04:51:52;6.57;;;1.55;;
43994;SDS011;51687;52.160;5.298;2023-03-23T04:54:17;5.82;;;1.52;;
43994;SDS011;51687;52.160;5.298;2023-03-23T04:56:44;7.15;;;2.53;;
43994;SDS011;51687;52.160;5.298;2023-03-23T04:59:10;6.15;;;2.65;;
43994;SDS011;51687;52.160;5.298;2023-03-23T05:01:38;6.43;;;2.03;;
43994;SDS011;51687;52.160;5.298;2023-03-23T05:04:05;7.45;;;2.00;;
43994;SDS011;51687;52.160;5.298;2023-03-23T05:06:31;9.27;;;1.75;;
43994;SDS011;51687;52.160;5.298;2023-03-23T05:08:56;6.93;;;2.28;;
43994;SDS011;51687;52.160;5.298;2023-03-23T05:11:22;8.00;;;2.20;;
43994;SDS011;51687;52.160;5.298;2023-03-23T05:13:47;8.48;;;1.95;;
43994;SDS011;51687;52.160;5.298;2023-03-23T05:16:13;8.25;;;2.60;;
43994;SDS011;51687;52.160;5.298;2023-03-23T05:18:39;8.40;;;2.03;;
43994;SDS011;51687;52.160;5.298;2023-03-23T05:21:05;11.10;;;2.33;;
43994;SDS011;51687;52.160;5.298;2023-03-23T05:23:31;6.53;;;2.33;;
43994;SDS011;51687;52.160;5.298;2023-03-23T05:25:59;4.63;;;1.80;;
43994;SDS011;51687;52.160;5.298;2023-03-23T05:28:27;10.43;;;2.72;;
43994;SDS011;51687;52.160;5.298;2023-03-23T05:30:55;10.27;;;2.72;;
43994;SDS011;51687;52.160;5.298;2023-03-23T05:33:21;7.55;;;2.33;;
43994;SDS011;51687;52.160;5.298;2023-03-23T05:35:47;4.15;;;1.70;;
43994;SDS011;51687;52.160;5.298;2023-03-23T05:38:13;6.65;;;1.73;;
43994;SDS011;51687;52.160;5.298;2023-03-23T05:40:40;6.53;;;2.03;;
43994;SDS011;51687;52.160;5.298;2023-03-23T05:43:09;10.43;;;2.05;;
43994;SDS011;51687;52.160;5.298;2023-03-23T05:45:35;7.43;;;2.40;;
43994;SDS011;51687;52.160;5.298;2023-03-23T05:48:01;8.63;;;2.38;;
43994;SDS011;51687;52.160;5.298;2023-03-23T05:50:27;7.75;;;2.53;;
43994;SDS011;51687;52.160;5.298;2023-03-23T05:52:54;8.30;;;2.63;;
43994;SDS011;51687;52.160;5.298;2023-03-23T05:55:20;8.13;;;2.70;;
43994;SDS011;51687;52.160;5.298;2023-03-23T05:57:46;10.77;;;3.00;;
43994;SDS011;51687;52.160;5.298;2023-03-23T06:00:12;11.70;;;3.15;;
43994;SDS011;51687;52.160;5.298;2023-03-23T06:02:39;8.23;;;2.55;;
43994;SDS011;51687;52.160;5.298;2023-03-23T06:05:08;12.30;;;3.28;;
43994;SDS011;51687;52.160;5.298;2023-03-23T06:07:35;11.82;;;2.80;;
43994;SDS011;51687;52.160;5.298;2023-03-23T06:10:02;9.57;;;3.40;;
43994;SDS011;51687;52.160;5.298;2023-03-23T06:12:29;7.18;;;3.00;;
43994;SDS011;51687;52.160;5.298;2023-03-23T06:14:56;7.82;;;2.58;;
43994;SDS011;51687;52.160;5.298;2023-03-23T06:17:22;9.95;;;2.60;;
43994;SDS011;51687;52.160;5.298;2023-03-23T06:19:47;8.40;;;3.22;;
43994;SDS011;51687;52.160;5.298;2023-03-23T06:22:16;10.68;;;2.78;;
43994;SDS011;51687;52.160;5.298;2023-03-23T06:24:42;8.68;;;2.30;;
43994;SDS011;51687;52.160;5.298;2023-03-23T06:27:09;9.50;;;2.47;;
43994;SDS011;51687;52.160;5.298;2023-03-23T06:29:35;9.23;;;2.40;;
43994;SDS011;51687;52.160;5.298;2023-03-23T06:32:02;7.25;;;2.15;;
43994;SDS011;51687;52.160;5.298;2023-03-23T06:34:29;9.60;;;2.88;;
43994;SDS011;51687;52.160;5.298;2023-03-23T06:36:56;8.68;;;3.28;;
43994;SDS011;51687;52.160;5.298;2023-03-23T06:39:22;9.93;;;2.45;;
43994;SDS011;51687;52.160;5.298;2023-03-23T06:41:48;8.70;;;2.80;;
43994;SDS011;51687;52.160;5.298;2023-03-23T06:44:13;10.40;;;3.38;;
43994;SDS011;51687;52.160;5.298;2023-03-23T06:46:40;8.82;;;3.40;;
43994;SDS011;51687;52.160;5.298;2023-03-23T06:49:06;7.75;;;2.90;;
43994;SDS011;51687;52.160;5.298;2023-03-23T06:51:32;10.88;;;3.10;;
43994;SDS011;51687;52.160;5.298;2023-03-23T06:53:58;9.27;;;3.22;;
43994;SDS011;51687;52.160;5.298;2023-03-23T06:56:24;10.90;;;2.78;;
43994;SDS011;51687;52.160;5.298;2023-03-23T06:58:50;8.07;;;2.70;;
43994;SDS011;51687;52.160;5.298;2023-03-23T07:01:16;6.53;;;2.70;;
43994;SDS011;51687;52.160;5.298;2023-03-23T07:03:42;7.93;;;2.95;;
43994;SDS011;51687;52.160;5.298;2023-03-23T07:06:08;9.07;;;3.97;;
43994;SDS011;51687;52.160;5.298;2023-03-23T07:08:34;11.45;;;3.45;;
43994;SDS011;51687;52.160;5.298;2023-03-23T07:11:01;8.18;;;2.92;;
43994;SDS011;51687;52.160;5.298;2023-03-23T07:13:27;7.13;;;2.67;;
43994;SDS011;51687;52.160;5.298;2023-03-23T07:15:53;8.93;;;2.65;;
43994;SDS011;51687;52.160;5.298;2023-03-23T07:18:20;8.30;;;2.53;;
43994;SDS011;51687;52.160;5.298;2023-03-23T07:20:49;7.03;;;2.58;;
43994;SDS011;51687;52.160;5.298;2023-03-23T07:23:16;8.80;;;2.60;;
43994;SDS011;51687;52.160;5.298;2023-03-23T07:25:42;8.25;;;3.15;;
43994;SDS011;51687;52.160;5.298;2023-03-23T07:28:09;12.63;;;3.40;;
43994;SDS011;51687;52.160;5.298;2023-03-23T07:30:35;12.15;;;3.03;;
43994;SDS011;51687;52.160;5.298;2023-03-23T07:33:06;8.40;;;3.05;;
43994;SDS011;51687;52.160;5.298;2023-03-23T07:35:32;7.43;;;2.92;;
43994;SDS011;51687;52.160;5.298;2023-03-23T07:37:58;9.68;;;2.63;;
43994;SDS011;51687;52.160;5.298;2023-03-23T07:40:25;8.88;;;2.95;;
43994;SDS011;51687;52.160;5.298;2023-03-23T07:42:52;11.02;;;3.58;;
43994;SDS011;51687;52.160;5.298;2023-03-23T07:45:20;8.30;;;2.55;;
43994;SDS011;51687;52.160;5.298;2023-03-23T07:47:46;11.50;;;2.78;;
43994;SDS011;51687;52.160;5.298;2023-03-23T07:50:12;10.02;;;3.30;;
43994;SDS011;51687;52.160;5.298;2023-03-23T07:52:39;11.88;;;2.63;;
43994;SDS011;51687;52.160;5.298;2023-03-23T07:55:06;10.82;;;2.88;;
43994;SDS011;51687;52.160;5.298;2023-03-23T07:57:34;10.38;;;3.22;;
43994;SDS011;51687;52.160;5.298;2023-03-23T08:00:00;13.90;;;3.70;;
43994;SDS011;51687;52.160;5.298;2023-03-23T08:02:28;9.73;;;3.80;;
43994;SDS011;51687;52.160;5.298;2023-03-23T08:04:56;8.88;;;2.85;;
43994;SDS011;51687;52.160;5.298;2023-03-23T08:07:25;9.77;;;3.22;;
43994;SDS011;51687;52.160;5.298;2023-03-23T08:09:51;9.35;;;3.20;;
43994;SDS011;51687;52.160;5.298;2023-03-23T08:12:17;8.02;;;2.83;;
43994;SDS011;51687;52.160;5.298;2023-03-23T08:14:43;7.53;;;3.13;;
43994;SDS011;51687;52.160;5.298;2023-03-23T08:17:09;9.18;;;2.97;;
43994;SDS011;51687;52.160;5.298;2023-03-23T08:19:35;8.25;;;2.55;;
43994;SDS011;51687;52.160;5.298;2023-03-23T08:22:04;7.15;;;2.75;;
43994;SDS011;51687;52.160;5.298;2023-03-23T08:24:31;8.15;;;2.65;;
43994;SDS011;51687;52.160;5.298;2023-03-23T08:26:58;8.48;;;2.53;;
43994;SDS011;51687;52.160;5.298;2023-03-23T08:29:24;8.48;;;3.00;;
43994;SDS011;51687;52.160;5.298;2023-03-23T08:31:50;7.28;;;2.92;;
43994;SDS011;51687;52.160;5.298;2023-03-23T08:34:16;7.07;;;2.35;;
43994;SDS011;51687;52.160;5.298;2023-03-23T08:36:42;8.10;;;2.58;;
43994;SDS011;51687;52.160;5.298;2023-03-23T08:39:09;11.23;;;3.03;;
43994;SDS011;51687;52.160;5.298;2023-03-23T08:41:35;5.15;;;2.58;;
43994;SDS011;51687;52.160;5.298;2023-03-23T08:44:01;8.95;;;3.13;;
43994;SDS011;51687;52.160;5.298;2023-03-23T08:46:28;10.40;;;3.35;;
43994;SDS011;51687;52.160;5.298;2023-03-23T08:48:53;8.05;;;2.67;;
43994;SDS011;51687;52.160;5.298;2023-03-23T08:51:19;9.75;;;3.20;;
43994;SDS011;51687;52.160;5.298;2023-03-23T08:53:45;9.65;;;3.30;;
43994;SDS011;51687;52.160;5.298;2023-03-23T08:56:11;10.10;;;2.97;;
43994;SDS011;51687;52.160;5.298;2023-03-23T08:58:38;11.80;;;3.25;;
43994;SDS011;51687;52.160;5.298;2023-03-23T09:01:05;9.15;;;3.55;;
43994;SDS011;51687;52.160;5.298;2023-03-23T09:03:32;8.43;;;2.90;;
43994;SDS011;51687;52.160;5.298;2023-03-23T09:06:03;6.47;;;2.53;;
43994;SDS011;51687;52.160;5.298;2023-03-23T09:08:31;9.30;;;2.88;;
43994;SDS011;51687;52.160;5.298;2023-03-23T09:11:04;9.68;;;2.92;;
43994;SDS011;51687;52.160;5.298;2023-03-23T09:13:32;10.23;;;2.70;;
43994;SDS011;51687;52.160;5.298;2023-03-23T09:15:59;8.60;;;3.33;;
43994;SDS011;51687;52.160;5.298;2023-03-23T09:18:26;12.30;;;3.35;;
43994;SDS011;51687;52.160;5.298;2023-03-23T09:20:53;7.85;;;3.53;;
43994;SDS011;51687;52.160;5.298;2023-03-23T09:23:19;8.60;;;3.60;;
43994;SDS011;51687;52.160;5.298;2023-03-23T09:25:46;13.90;;;3.35;;
43994;SDS011;51687;52.160;5.298;2023-03-23T09:28:12;11.27;;;3.33;;
43994;SDS011;51687;52.160;5.298;2023-03-23T09:30:38;11.07;;;3.30;;
43994;SDS011;51687;52.160;5.298;2023-03-23T09:33:06;15.53;;;4.07;;
43994;SDS011;51687;52.160;5.298;2023-03-23T09:35:33;13.23;;;3.72;;
43994;SDS011;51687;52.160;5.298;2023-03-23T09:38:01;11.80;;;3.58;;
43994;SDS011;51687;52.160;5.298;2023-03-23T09:41:01;12.15;;;3.20;;
43994;SDS011;51687;52.160;5.298;2023-03-23T09:49:45;9.82;;;3.38;;
43994;SDS011;51687;52.160;5.298;2023-03-23T09:52:11;12.77;;;2.92;;
43994;SDS011;51687;52.160;5.298;2023-03-23T09:54:40;19.05;;;4.05;;
43994;SDS011;51687;52.160;5.298;2023-03-23T09:57:14;11.65;;;3.42;;
43994;SDS011;51687;52.160;5.298;2023-03-23T10:00:23;9.07;;;3.50;;
43994;SDS011;51687;52.160;5.298;2023-03-23T10:03:00;14.57;;;4.25;;
43994;SDS011;51687;52.160;5.298;2023-03-23T10:08:17;9.20;;;2.80;;
43994;SDS011;51687;52.160;5.298;2023-03-23T10:16:17;9.57;;;2.95;;
43994;SDS011;51687;52.160;5.298;2023-03-23T10:21:22;8.93;;;2.95;;
43994;SDS011;51687;52.160;5.298;2023-03-23T10:23:57;14.68;;;2.92;;
43994;SDS011;51687;52.160;5.298;2023-03-23T10:26:32;11.38;;;3.72;;
43994;SDS011;51687;52.160;5.298;2023-03-23T10:29:11;12.57;;;2.75;;
43994;SDS011;51687;52.160;5.298;2023-03-23T10:31:45;8.75;;;2.40;;
43994;SDS011;51687;52.160;5.298;2023-03-23T10:34:28;10.35;;;3.38;;
43994;SDS011;51687;52.160;5.298;2023-03-23T10:39:56;11.13;;;2.60;;
43994;SDS011;51687;52.160;5.298;2023-03-23T10:42:32;10.20;;;3.40;;
43994;SDS011;51687;52.160;5.298;2023-03-23T10:44:59;17.27;;;3.05;;
43994;SDS011;51687;52.160;5.298;2023-03-23T10:47:38;8.80;;;3.10;;
43994;SDS011;51687;52.160;5.298;2023-03-23T10:50:15;11.10;;;2.97;;
43994;SDS011;51687;52.160;5.298;2023-03-23T10:52:46;12.80;;;3.63;;
43994;SDS011;51687;52.160;5.298;2023-03-23T10:58:00;10.20;;;3.17;;
43994;SDS011;51687;52.160;5.298;2023-03-23T11:00:26;8.65;;;2.45;;
43994;SDS011;51687;52.160;5.298;2023-03-23T11:03:05;9.55;;;3.00;;
43994;SDS011;51687;52.160;5.298;2023-03-23T11:05:50;8.82;;;2.78;;
43994;SDS011;51687;52.160;5.298;2023-03-23T11:08:19;12.68;;;2.95;;
43994;SDS011;51687;52.160;5.298;2023-03-23T11:10:59;9.20;;;2.97;;
43994;SDS011;51687;52.160;5.298;2023-03-23T11:13:39;15.02;;;3.00;;
43994;SDS011;51687;52.160;5.298;2023-03-23T11:16:09;9.07;;;2.90;;
43994;SDS011;51687;52.160;5.298;2023-03-23T11:18:40;10.63;;;3.10;;
43994;SDS011;51687;52.160;5.298;2023-03-23T11:21:11;10.88;;;2.83;;
43994;SDS011;51687;52.160;5.298;2023-03-23T11:23:39;11.75;;;3.55;;
43994;SDS011;51687;52.160;5.298;2023-03-23T11:29:03;13.45;;;4.40;;
43994;SDS011;51687;52.160;5.298;2023-03-23T11:31:34;10.60;;;2.53;;
43994;SDS011;51687;52.160;5.298;2023-03-23T11:34:04;11.48;;;3.05;;
43994;SDS011;51687;52.160;5.298;2023-03-23T11:36:59;11.90;;;3.45;;
43994;SDS011;51687;52.160;5.298;2023-03-23T11:39:45;9.70;;;2.83;;
43994;SDS011;51687;52.160;5.298;2023-03-23T11:42:20;9.85;;;2.53;;
43994;SDS011;51687;52.160;5.298;2023-03-23T11:44:55;8.35;;;2.53;;
43994;SDS011;51687;52.160;5.298;2023-03-23T11:47:36;9.48;;;2.72;;
43994;SDS011;51687;52.160;5.298;2023-03-23T11:50:23;13.63;;;3.70;;
43994;SDS011;51687;52.160;5.298;2023-03-23T11:57:55;13.63;;;2.58;;
43994;SDS011;51687;52.160;5.298;2023-03-23T12:00:21;12.82;;;3.33;;
43994;SDS011;51687;52.160;5.298;2023-03-23T12:08:07;15.30;;;3.38;;
43994;SDS011;51687;52.160;5.298;2023-03-23T12:15:49;10.73;;;3.15;;
43994;SDS011;51687;52.160;5.298;2023-03-23T12:21:08;12.32;;;3.42;;
43994;SDS011;51687;52.160;5.298;2023-03-23T12:32:02;8.95;;;2.75;;
43994;SDS011;51687;52.160;5.298;2023-03-23T12:34:17;10.23;;;2.90;;
43994;SDS011;51687;52.160;5.298;2023-03-23T12:36:50;10.80;;;3.65;;
43994;SDS011;51687;52.160;5.298;2023-03-23T12:39:41;9.40;;;2.50;;
43994;SDS011;51687;52.160;5.298;2023-03-23T12:42:21;9.10;;;3.17;;
43994;SDS011;51687;52.160;5.298;2023-03-23T12:44:59;12.52;;;2.83;;
43994;SDS011;51687;52.160;5.298;2023-03-23T12:47:47;8.77;;;2.33;;
43994;SDS011;51687;52.160;5.298;2023-03-23T12:50:28;7.75;;;2.70;;
43994;SDS011;51687;52.160;5.298;2023-03-23T12:53:06;7.95;;;2.65;;
43994;SDS011;51687;52.160;5.298;2023-03-23T12:58:31;10.30;;;2.42;;
43994;SDS011;51687;52.160;5.298;2023-03-23T13:01:12;7.13;;;2.50;;
43994;SDS011;51687;52.160;5.298;2023-03-23T13:03:49;7.82;;;2.42;;
43994;SDS011;51687;52.160;5.298;2023-03-23T13:12:25;9.30;;;2.80;;
43994;SDS011;51687;52.160;5.298;2023-03-23T13:14:56;11.20;;;2.30;;
43994;SDS011;51687;52.160;5.298;2023-03-23T13:23:05;7.38;;;2.03;;
43994;SDS011;51687;52.160;5.298;2023-03-23T13:25:48;6.80;;;2.33;;
43994;SDS011;51687;52.160;5.298;2023-03-23T13:28:21;5.90;;;2.13;;
43994;SDS011;51687;52.160;5.298;2023-03-23T13:30:57;6.88;;;1.95;;
43994;SDS011;51687;52.160;5.298;2023-03-23T13:33:25;5.45;;;2.03;;
43994;SDS011;51687;52.160;5.298;2023-03-23T13:35:56;9.90;;;2.88;;
43994;SDS011;51687;52.160;5.298;2023-03-23T13:38:25;5.85;;;1.55;;
43994;SDS011;51687;52.160;5.298;2023-03-23T13:40:55;11.60;;;2.78;;
43994;SDS011;51687;52.160;5.298;2023-03-23T13:43:32;7.20;;;2.28;;
43994;SDS011;51687;52.160;5.298;2023-03-23T13:48:51;4.25;;;1.80;;
43994;SDS011;51687;52.160;5.298;2023-03-23T13:54:05;11.20;;;2.55;;
43994;SDS011;51687;52.160;5.298;2023-03-23T13:56:40;7.55;;;2.22;;
43994;SDS011;51687;52.160;5.298;2023-03-23T14:01:56;6.82;;;2.08;;
43994;SDS011;51687;52.160;5.298;2023-03-23T14:04:42;7.45;;;2.80;;
43994;SDS011;51687;52.160;5.298;2023-03-23T14:07:11;6.05;;;2.40;;
43994;SDS011;51687;52.160;5.298;2023-03-23T14:09:44;5.75;;;2.38;;
43994;SDS011;51687;52.160;5.298;2023-03-23T14:12:15;5.22;;;2.10;;
43994;SDS011;51687;52.160;5.298;2023-03-23T14:14:47;7.60;;;2.45;;
43994;SDS011;51687;52.160;5.298;2023-03-23T14:17:17;7.18;;;2.13;;
43994;SDS011;51687;52.160;5.298;2023-03-23T14:19:50;7.95;;;2.20;;
43994;SDS011;51687;52.160;5.298;2023-03-23T14:22:27;5.97;;;1.48;;
43994;SDS011;51687;52.160;5.298;2023-03-23T14:25:17;6.65;;;1.98;;
43994;SDS011;51687;52.160;5.298;2023-03-23T14:27:45;6.15;;;1.60;;
43994;SDS011;51687;52.160;5.298;2023-03-23T14:30:15;5.78;;;2.03;;
43994;SDS011;51687;52.160;5.298;2023-03-23T14:32:42;5.20;;;1.77;;
43994;SDS011;51687;52.160;5.298;2023-03-23T14:35:30;6.93;;;2.53;;
43994;SDS011;51687;52.160;5.298;2023-03-23T14:37:55;9.57;;;2.17;;
43994;SDS011;51687;52.160;5.298;2023-03-23T14:40:22;9.52;;;2.50;;
43994;SDS011;51687;52.160;5.298;2023-03-23T14:42:51;6.50;;;2.50;;
43994;SDS011;51687;52.160;5.298;2023-03-23T14:45:19;13.07;;;3.08;;
43994;SDS011;51687;52.160;5.298;2023-03-23T14:47:47;10.40;;;3.05;;
43994;SDS011;51687;52.160;5.298;2023-03-23T14:50:27;6.57;;;2.20;;
43994;SDS011;51687;52.160;5.298;2023-03-23T14:52:57;7.18;;;2.53;;
43994;SDS011;51687;52.160;5.298;2023-03-23T14:55:26;8.55;;;2.33;;
43994;SDS011;51687;52.160;5.298;2023-03-23T14:57:55;7.55;;;2.15;;
43994;SDS011;51687;52.160;5.298;2023-03-23T15:00:33;11.80;;;3.20;;
43994;SDS011;51687;52.160;5.298;2023-03-23T15:03:10;7.82;;;2.55;;
43994;SDS011;51687;52.160;5.298;2023-03-23T15:05:41;6.75;;;2.00;;
43994;SDS011;51687;52.160;5.298;2023-03-23T15:08:24;10.05;;;2.58;;
43994;SDS011;51687;52.160;5.298;2023-03-23T15:13:32;9.93;;;2.53;;
43994;SDS011;51687;52.160;5.298;2023-03-23T15:16:07;11.45;;;3.50;;
43994;SDS011;51687;52.160;5.298;2023-03-23T15:18:47;8.55;;;2.47;;
43994;SDS011;51687;52.160;5.298;2023-03-23T15:21:28;9.55;;;3.13;;
43994;SDS011;51687;52.160;5.298;2023-03-23T15:23:56;7.37;;;2.40;;
43994;SDS011;51687;52.160;5.298;2023-03-23T15:26:25;9.35;;;2.45;;
43994;SDS011;51687;52.160;5.298;2023-03-23T15:29:14;9.65;;;2.60;;
43994;SDS011;51687;52.160;5.298;2023-03-23T15:31:59;5.90;;;2.17;;
43994;SDS011;51687;52.160;5.298;2023-03-23T15:34:30;10.88;;;2.63;;
43994;SDS011;51687;52.160;5.298;2023-03-23T15:36:58;7.60;;;2.35;;
43994;SDS011;51687;52.160;5.298;2023-03-23T15:39:24;7.38;;;2.08;;
43994;SDS011;51687;52.160;5.298;2023-03-23T15:41:51;10.50;;;2.92;;
43994;SDS011;51687;52.160;5.298;2023-03-23T15:44:22;6.60;;;2.67;;
43994;SDS011;51687;52.160;5.298;2023-03-23T15:46:49;7.32;;;2.22;;
43994;SDS011;51687;52.160;5.298;2023-03-23T15:49:15;9.63;;;2.65;;
43994;SDS011;51687;52.160;5.298;2023-03-23T15:51:41;12.32;;;3.08;;
43994;SDS011;51687;52.160;5.298;2023-03-23T15:54:17;10.27;;;2.55;;
43994;SDS011;51687;52.160;5.298;2023-03-23T15:56:44;9.93;;;2.47;;
43994;SDS011;51687;52.160;5.298;2023-03-23T15:59:11;8.33;;;2.27;;
43994;SDS011;51687;52.160;5.298;2023-03-23T16:01:39;8.65;;;2.47;;
43994;SDS011;51687;52.160;5.298;2023-03-23T16:06:34;8.45;;;2.47;;
43994;SDS011;51687;52.160;5.298;2023-03-23T16:09:02;9.10;;;2.80;;
43994;SDS011;51687;52.160;5.298;2023-03-23T16:11:30;12.48;;;2.75;;
43994;SDS011;51687;52.160;5.298;2023-03-23T16:13:57;8.15;;;2.60;;
43994;SDS011;51687;52.160;5.298;2023-03-23T16:16:33;8.93;;;2.40;;
43994;SDS011;51687;52.160;5.298;2023-03-23T16:19:01;11.82;;;2.85;;
43994;SDS011;51687;52.160;5.298;2023-03-23T16:21:28;10.35;;;3.30;;
43994;SDS011;51687;52.160;5.298;2023-03-23T16:23:55;10.98;;;2.22;;
43994;SDS011;51687;52.160;5.298;2023-03-23T16:26:23;8.43;;;3.00;;
43994;SDS011;51687;52.160;5.298;2023-03-23T16:28:50;10.77;;;2.42;;
43994;SDS011;51687;52.160;5.298;2023-03-23T16:31:28;12.63;;;3.03;;
43994;SDS011;51687;52.160;5.298;2023-03-23T16:33:55;8.88;;;2.42;;
43994;SDS011;51687;52.160;5.298;2023-03-23T16:36:22;10.00;;;2.53;;
43994;SDS011;51687;52.160;5.298;2023-03-23T16:38:49;7.72;;;2.85;;
43994;SDS011;51687;52.160;5.298;2023-03-23T16:41:19;8.43;;;2.72;;
43994;SDS011;51687;52.160;5.298;2023-03-23T16:43:47;9.75;;;3.13;;